createdAt,value
2023-04-18T00:01:38.334Z,5.73
2023-04-18T00:04:05.609Z,5.69
2023-04-18T00:06:32.673Z,5.75
2023-04-18T00:08:59.146Z,5.76
2023-04-18T00:11:25.632Z,5.72
2023-04-18T00:13:52.099Z,5.70
2023-04-18T00:16:19.069Z,5.73
2023-04-18T00:18:45.583Z,5.72
2023-04-18T00:21:13.381Z,5.74
2023-04-18T00:23:39.901Z,5.74
2023-04-18T00:26:06.356Z,5.72
2023-04-18T00:28:32.874Z,5.70
2023-04-18T00:30:59.657Z,5.70
2023-04-18T00:33:26.260Z,5.71
2023-04-18T00:35:53.738Z,5.69
2023-04-18T00:38:20.121Z,5.70
2023-04-18T00:40:46.608Z,5.70
2023-04-18T00:43:13.993Z,5.70
2023-04-18T00:45:40.722Z,5.67
2023-04-18T00:48:07.543Z,5.62
2023-04-18T00:50:34.074Z,5.65
2023-04-18T00:53:00.802Z,5.69
2023-04-18T00:55:27.305Z,5.65
2023-04-18T00:57:53.740Z,5.66
2023-04-18T01:00:20.188Z,5.63
2023-04-18T01:02:47.844Z,5.67
2023-04-18T01:05:14.696Z,5.62
2023-04-18T01:07:41.555Z,5.64
2023-04-18T01:10:10.300Z,5.60
2023-04-18T01:12:37.707Z,5.60
2023-04-18T01:15:08.076Z,5.62
2023-04-18T01:17:35.546Z,5.62
2023-04-18T01:20:04.895Z,5.61
2023-04-18T01:22:32.347Z,5.60
2023-04-18T01:24:58.997Z,5.59
2023-04-18T01:27:25.538Z,5.56
2023-04-18T01:29:52.080Z,5.57
2023-04-18T01:32:20.453Z,5.55
2023-04-18T01:34:47.239Z,5.53
2023-04-18T01:37:13.746Z,5.52
2023-04-18T01:39:40.190Z,5.52
2023-04-18T01:42:06.736Z,5.51
2023-04-18T01:44:33.122Z,5.48
2023-04-18T01:46:59.629Z,5.44
2023-04-18T01:49:26.227Z,5.47
2023-04-18T01:51:52.725Z,5.49
2023-04-18T01:54:19.253Z,5.43
2023-04-18T01:56:45.774Z,5.39
2023-04-18T01:59:12.160Z,5.41
2023-04-18T02:01:38.586Z,5.38
2023-04-18T02:04:05.272Z,5.39
2023-04-18T02:06:31.832Z,5.38
2023-04-18T02:08:58.389Z,5.37
2023-04-18T02:11:25.041Z,5.35
2023-04-18T02:13:52.306Z,5.35
2023-04-18T02:16:18.865Z,5.34
2023-04-18T02:18:45.336Z,5.32
2023-04-18T02:21:11.855Z,5.30
2023-04-18T02:23:38.359Z,5.31
2023-04-18T02:26:04.836Z,5.29
2023-04-18T02:28:31.312Z,5.27
2023-04-18T02:30:59.798Z,5.23
2023-04-18T02:33:26.288Z,5.22
2023-04-18T02:35:52.668Z,5.24
2023-04-18T02:38:19.145Z,5.19
2023-04-18T02:40:45.660Z,5.13
2023-04-18T02:43:12.108Z,5.11
2023-04-18T02:45:38.588Z,5.08
2023-04-18T02:48:05.345Z,5.06
2023-04-18T02:50:32.124Z,5.03
2023-04-18T02:52:58.620Z,5.03
2023-04-18T02:55:26.868Z,4.97
2023-04-18T02:57:53.343Z,4.98
2023-04-18T03:00:19.867Z,4.95
2023-04-18T03:02:46.446Z,4.92
2023-04-18T03:05:13.231Z,4.88
2023-04-18T03:07:39.689Z,4.88
2023-04-18T03:10:06.594Z,4.84
2023-04-18T03:12:33.053Z,4.82
2023-04-18T03:14:59.435Z,4.80
2023-04-18T03:17:25.952Z,4.81
2023-04-18T03:19:52.576Z,4.83
2023-04-18T03:22:19.475Z,4.79
2023-04-18T03:24:45.970Z,4.75
2023-04-18T03:27:12.864Z,4.72
2023-04-18T03:29:39.293Z,4.68
2023-04-18T03:32:05.739Z,4.66
2023-04-18T03:34:32.143Z,4.64
2023-04-18T03:36:58.643Z,4.69
2023-04-18T03:39:25.168Z,4.65
2023-04-18T03:41:52.566Z,4.64
2023-04-18T03:44:19.054Z,4.67
2023-04-18T03:46:45.768Z,4.68
2023-04-18T03:49:12.246Z,4.76
2023-04-18T03:51:49.807Z,4.81
2023-04-18T03:54:17.052Z,4.82
2023-04-18T03:56:44.199Z,4.79
2023-04-18T03:59:11.433Z,4.75
2023-04-18T04:01:38.052Z,4.72
2023-04-18T04:04:05.992Z,4.70
2023-04-18T04:06:32.874Z,4.65
2023-04-18T04:08:59.313Z,4.61
2023-04-18T04:11:26.023Z,4.61
2023-04-18T04:13:52.870Z,4.59
2023-04-18T04:16:19.454Z,4.57
2023-04-18T04:18:45.935Z,4.61
2023-04-18T04:21:12.477Z,4.61
2023-04-18T04:23:38.993Z,4.63
2023-04-18T04:26:05.490Z,4.65
2023-04-18T04:28:31.909Z,4.64
2023-04-18T04:30:59.222Z,4.64
2023-04-18T04:33:28.554Z,4.65
2023-04-18T04:35:55.605Z,4.67
2023-04-18T04:38:24.975Z,4.68
2023-04-18T04:40:52.788Z,4.65
2023-04-18T04:43:20.474Z,4.68
2023-04-18T04:45:51.488Z,4.72
2023-04-18T04:48:19.801Z,4.67
2023-04-18T04:50:58.274Z,4.81
2023-04-18T04:53:26.557Z,4.87
2023-04-18T04:55:52.984Z,4.93
2023-04-18T04:58:19.954Z,4.98
2023-04-18T05:00:46.466Z,5.01
2023-04-18T05:03:13.034Z,5.05
2023-04-18T05:05:39.677Z,5.08
2023-04-18T05:08:06.209Z,5.13
2023-04-18T05:10:33.063Z,5.17
2023-04-18T05:12:59.493Z,5.22
2023-04-18T05:15:26.104Z,5.28
2023-04-18T05:17:52.539Z,5.35
2023-04-18T05:20:19.024Z,5.42
2023-04-18T05:22:45.529Z,5.53
2023-04-18T05:25:12.466Z,5.57
2023-04-18T05:27:39.642Z,5.61
2023-04-18T05:30:06.917Z,5.67
2023-04-18T05:32:33.465Z,5.69
2023-04-18T05:35:00.149Z,5.75
2023-04-18T05:37:26.558Z,5.78
2023-04-18T05:39:52.958Z,5.81
2023-04-18T05:42:19.434Z,5.82
2023-04-18T05:44:45.794Z,5.83
2023-04-18T05:47:12.307Z,5.89
2023-04-18T05:49:38.823Z,5.92
2023-04-18T05:52:05.668Z,5.91
2023-04-18T05:54:32.141Z,5.98
2023-04-18T05:57:00.900Z,6.04
2023-04-18T05:59:28.672Z,6.02
2023-04-18T06:01:55.217Z,6.08
2023-04-18T06:04:22.054Z,6.12
2023-04-18T06:06:48.730Z,6.18
2023-04-18T06:09:15.170Z,6.36
2023-04-18T06:11:41.682Z,6.50
2023-04-18T06:14:08.120Z,6.63
2023-04-18T06:16:37.125Z,6.56
2023-04-18T06:19:05.247Z,6.54
2023-04-18T06:21:32.014Z,6.58
2023-04-18T06:23:58.522Z,6.54
2023-04-18T06:26:25.064Z,6.48
2023-04-18T06:28:51.498Z,6.42
2023-04-18T06:31:18.148Z,6.45
2023-04-18T06:33:44.577Z,6.44
2023-04-18T06:36:11.132Z,6.44
2023-04-18T06:38:37.569Z,6.49
2023-04-18T06:41:04.202Z,6.49
2023-04-18T06:43:31.050Z,6.51
2023-04-18T06:45:57.659Z,6.56
2023-04-18T06:48:24.247Z,6.56
2023-04-18T06:50:50.803Z,6.56
2023-04-18T06:53:17.348Z,6.55
2023-04-18T06:55:43.918Z,6.54
2023-04-18T06:58:10.328Z,6.54
2023-04-18T07:00:36.754Z,6.53
2023-04-18T07:03:11.317Z,6.48
2023-04-18T07:05:41.700Z,6.51
2023-04-18T07:08:08.443Z,6.55
2023-04-18T07:10:34.893Z,6.50
2023-04-18T07:13:01.346Z,6.57
2023-04-18T07:15:27.886Z,6.61
2023-04-18T07:17:54.509Z,6.61
2023-04-18T07:20:21.169Z,6.65
2023-04-18T07:22:48.755Z,6.66
2023-04-18T07:25:16.312Z,6.63
2023-04-18T07:27:42.720Z,6.64
2023-04-18T07:30:09.675Z,6.62
2023-04-18T07:32:36.296Z,6.61
2023-04-18T07:35:03.377Z,6.63
2023-04-18T07:37:29.879Z,6.64
2023-04-18T07:39:56.424Z,6.64
2023-04-18T07:42:22.924Z,6.64
2023-04-18T07:44:49.714Z,6.65
2023-04-18T07:47:16.428Z,6.63
2023-04-18T07:49:42.816Z,6.69
2023-04-18T07:52:09.292Z,6.75
2023-04-18T07:54:35.800Z,6.77
2023-04-18T07:57:02.325Z,6.80
2023-04-18T07:59:29.748Z,6.83
2023-04-18T08:01:56.319Z,6.89
2023-04-18T08:04:23.177Z,6.92
2023-04-18T08:06:49.734Z,6.96
2023-04-18T08:09:16.326Z,7.01
2023-04-18T08:11:43.153Z,7.03
2023-04-18T08:14:09.617Z,7.05
2023-04-18T08:16:36.986Z,7.13
2023-04-18T08:19:04.940Z,7.15
2023-04-18T08:21:32.151Z,7.21
2023-04-18T08:23:59.079Z,7.24
2023-04-18T08:26:25.851Z,7.25
2023-04-18T08:28:52.480Z,7.21
2023-04-18T08:31:19.077Z,7.23
2023-04-18T08:33:45.631Z,7.27
2023-04-18T08:36:12.159Z,7.24
2023-04-18T08:38:38.887Z,7.26
2023-04-18T08:41:05.562Z,7.29
2023-04-18T08:43:32.306Z,7.27
2023-04-18T08:46:00.199Z,7.34
2023-04-18T08:48:30.535Z,7.34
2023-04-18T08:51:01.544Z,7.37
2023-04-18T08:53:28.101Z,7.34
2023-04-18T08:55:56.315Z,7.41
2023-04-18T08:58:23.278Z,7.37
2023-04-18T09:00:51.555Z,7.41
2023-04-18T09:03:35.152Z,7.42
2023-04-18T09:06:18.824Z,7.43
2023-04-18T09:08:58.755Z,7.47
2023-04-18T09:11:28.581Z,7.49
2023-04-18T09:13:59.388Z,7.53
2023-04-18T09:16:27.525Z,7.56
2023-04-18T09:19:12.861Z,7.59
2023-04-18T09:21:41.950Z,7.61
2023-04-18T09:24:22.678Z,7.65
2023-04-18T09:26:51.259Z,7.68
2023-04-18T09:29:18.623Z,7.73
2023-04-18T09:31:57.432Z,7.80
2023-04-18T09:34:27.604Z,7.82
2023-04-18T09:37:11.330Z,7.86
2023-04-18T09:39:42.743Z,7.90
2023-04-18T09:42:10.889Z,7.95
2023-04-18T09:44:38.574Z,7.96
2023-04-18T09:47:07.788Z,8.01
2023-04-18T09:49:34.607Z,8.01
2023-04-18T09:52:06.439Z,8.05
2023-04-18T09:54:37.479Z,8.06
2023-04-18T09:57:09.107Z,8.07
2023-04-18T09:59:47.667Z,8.03
2023-04-18T10:02:22.567Z,8.04
2023-04-18T10:04:53.732Z,8.08
2023-04-18T10:07:20.828Z,8.10
2023-04-18T10:09:48.983Z,8.07
2023-04-18T10:12:17.363Z,8.09
2023-04-18T10:14:44.364Z,8.10
2023-04-18T10:17:11.721Z,8.13
2023-04-18T10:19:41.961Z,8.11
2023-04-18T10:22:08.454Z,8.12
2023-04-18T10:24:53.311Z,8.18
2023-04-18T10:27:48.984Z,8.17
2023-04-18T10:30:16.767Z,8.23
2023-04-18T10:32:43.560Z,8.30
2023-04-18T10:35:11.188Z,8.42
2023-04-18T10:37:51.128Z,8.48
2023-04-18T10:40:32.435Z,8.49
2023-04-18T10:42:59.167Z,8.49
2023-04-18T10:45:28.848Z,8.54
2023-04-18T10:48:30.134Z,8.63
2023-04-18T10:51:19.319Z,8.69
2023-04-18T10:53:52.432Z,8.73
2023-04-18T10:56:19.316Z,8.80
2023-04-18T10:58:59.237Z,8.91
2023-04-18T11:01:31.651Z,8.99
2023-04-18T11:03:59.573Z,9.01
2023-04-18T11:06:30.270Z,9.04
2023-04-18T11:09:13.728Z,9.10
2023-04-18T11:11:41.940Z,9.18
2023-04-18T11:14:08.502Z,9.40
2023-04-18T11:16:35.181Z,9.74
2023-04-18T11:19:18.977Z,10.32
2023-04-18T11:21:45.509Z,10.69
2023-04-18T11:24:12.287Z,10.64
2023-04-18T11:26:39.216Z,10.95
2023-04-18T11:29:06.358Z,11.08
2023-04-18T11:31:32.793Z,10.82
2023-04-18T11:33:59.237Z,10.70
2023-04-18T11:36:26.500Z,10.85
2023-04-18T11:38:53.053Z,10.92
2023-04-18T11:41:19.555Z,11.01
2023-04-18T11:43:46.622Z,11.25
2023-04-18T11:46:13.593Z,11.06
2023-04-18T11:48:42.226Z,11.20
2023-04-18T11:51:31.922Z,11.25
2023-04-18T11:53:58.363Z,11.13
2023-04-18T11:56:25.041Z,11.28
2023-04-18T11:58:51.596Z,11.21
2023-04-18T12:01:25.724Z,11.12
2023-04-18T12:04:07.497Z,11.24
2023-04-18T12:06:50.282Z,11.26
2023-04-18T12:09:17.434Z,11.32
2023-04-18T12:11:44.327Z,11.49
2023-04-18T12:14:21.567Z,11.09
2023-04-18T12:16:52.015Z,11.16
2023-04-18T12:19:20.779Z,11.07
2023-04-18T12:22:02.046Z,11.14
2023-04-18T12:24:28.915Z,10.86
2023-04-18T12:26:57.838Z,10.85
2023-04-18T12:29:25.559Z,11.09
2023-04-18T12:31:52.149Z,11.07
2023-04-18T12:34:18.860Z,10.79
2023-04-18T12:36:45.908Z,11.17
2023-04-18T12:39:12.650Z,11.72
2023-04-18T12:41:39.099Z,12.11
2023-04-18T12:44:06.713Z,12.04
2023-04-18T12:46:33.355Z,12.40
2023-04-18T12:49:00.273Z,12.68
2023-04-18T12:51:27.952Z,13.00
2023-04-18T12:53:54.430Z,12.91
2023-04-18T12:56:21.419Z,12.85
2023-04-18T12:58:47.938Z,12.54
2023-04-18T13:01:14.531Z,12.55
2023-04-18T13:03:41.521Z,12.57
2023-04-18T13:06:09.363Z,12.99
2023-04-18T13:08:37.504Z,12.83
2023-04-18T13:11:04.147Z,12.76
2023-04-18T13:13:30.667Z,12.90
2023-04-18T13:15:57.217Z,12.80
2023-04-18T13:18:23.714Z,12.67
2023-04-18T13:20:50.296Z,12.24
2023-04-18T13:23:16.770Z,12.45
2023-04-18T13:25:43.305Z,12.43
2023-04-18T13:28:09.684Z,12.33
2023-04-18T13:30:36.102Z,12.12
2023-04-18T13:33:02.569Z,11.80
2023-04-18T13:35:29.180Z,12.15
2023-04-18T13:37:55.931Z,12.27
2023-04-18T13:40:22.523Z,12.39
2023-04-18T13:42:49.124Z,12.32
2023-04-18T13:45:15.838Z,12.14
2023-04-18T13:47:42.395Z,12.11
2023-04-18T13:50:09.447Z,11.94
2023-04-18T13:52:36.286Z,11.71
2023-04-18T13:55:02.828Z,11.74
2023-04-18T13:57:31.946Z,11.74
2023-04-18T13:59:58.422Z,11.61
2023-04-18T14:02:24.946Z,11.64
2023-04-18T14:04:52.360Z,11.68
2023-04-18T14:07:18.986Z,11.82
2023-04-18T14:09:48.164Z,11.76
2023-04-18T14:12:14.671Z,11.48
2023-04-18T14:14:41.762Z,11.46
2023-04-18T14:17:08.254Z,11.37
2023-04-18T14:19:35.005Z,11.22
2023-04-18T14:22:01.422Z,11.14
2023-04-18T14:24:27.926Z,10.91
2023-04-18T14:26:54.741Z,10.89
2023-04-18T14:29:21.159Z,10.86
2023-04-18T14:31:50.594Z,10.72
2023-04-18T14:34:17.110Z,10.61
2023-04-18T14:36:43.568Z,10.54
2023-04-18T14:39:10.260Z,10.46
2023-04-18T14:41:36.789Z,10.53
2023-04-18T14:44:04.158Z,10.60
2023-04-18T14:46:30.700Z,10.61
2023-04-18T14:48:58.251Z,10.60
2023-04-18T14:51:24.789Z,10.59
2023-04-18T14:53:51.399Z,10.30
2023-04-18T14:56:20.895Z,10.18
2023-04-18T14:58:47.550Z,10.10
2023-04-18T15:01:14.035Z,10.08
2023-04-18T15:03:40.900Z,10.01
2023-04-18T15:06:07.750Z,9.94
2023-04-18T15:08:34.348Z,9.78
2023-04-18T15:11:01.362Z,9.78
2023-04-18T15:13:27.910Z,9.81
2023-04-18T15:15:56.436Z,9.83
2023-04-18T15:18:23.067Z,9.84
2023-04-18T15:20:49.990Z,9.83
2023-04-18T15:23:16.581Z,9.86
2023-04-18T15:25:44.712Z,9.91
2023-04-18T15:28:13.125Z,9.87
2023-04-18T15:30:39.709Z,9.86
2023-04-18T15:33:07.526Z,9.66
2023-04-18T15:35:33.999Z,9.68
2023-04-18T15:38:00.539Z,9.60
2023-04-18T15:40:27.064Z,9.59
2023-04-18T15:42:54.328Z,9.50
2023-04-18T15:45:21.192Z,9.41
2023-04-18T15:47:47.837Z,9.42
2023-04-18T15:50:15.939Z,9.43
2023-04-18T15:52:42.453Z,9.39
2023-04-18T15:55:11.041Z,9.36
2023-04-18T15:57:37.792Z,9.32
2023-04-18T16:00:10.175Z,9.26
2023-04-18T16:02:37.021Z,9.23
2023-04-18T16:05:04.521Z,9.22
2023-04-18T16:07:31.191Z,9.20
2023-04-18T16:09:57.850Z,9.17
2023-04-18T16:12:24.621Z,9.23
2023-04-18T16:14:51.327Z,9.26
2023-04-18T16:17:17.881Z,9.31
2023-04-18T16:19:44.405Z,9.34
2023-04-18T16:22:12.112Z,9.37
2023-04-18T16:24:39.919Z,9.30
2023-04-18T16:27:08.014Z,9.35
2023-04-18T16:29:35.196Z,9.27
2023-04-18T16:32:02.767Z,9.20
2023-04-18T16:34:29.200Z,9.22
2023-04-18T16:36:55.813Z,9.25
2023-04-18T16:39:22.597Z,9.21
2023-04-18T16:41:49.267Z,9.20
2023-04-18T16:44:16.118Z,9.17
2023-04-18T16:46:42.832Z,9.13
2023-04-18T16:49:09.276Z,9.11
2023-04-18T16:51:37.097Z,9.13
2023-04-18T16:54:04.325Z,9.14
2023-04-18T16:56:30.759Z,9.09
2023-04-18T16:58:58.068Z,9.06
2023-04-18T17:01:24.532Z,9.07
2023-04-18T17:03:51.323Z,9.07
2023-04-18T17:06:19.286Z,9.01
2023-04-18T17:08:49.527Z,8.99
2023-04-18T17:11:19.825Z,9.01
2023-04-18T17:13:47.865Z,8.98
2023-04-18T17:16:14.589Z,8.98
2023-04-18T17:18:41.772Z,8.94
2023-04-18T17:21:12.335Z,8.92
2023-04-18T17:23:41.442Z,8.87
2023-04-18T17:26:09.061Z,8.80
2023-04-18T17:28:36.364Z,8.79
2023-04-18T17:31:03.891Z,8.80
2023-04-18T17:33:31.163Z,8.72
2023-04-18T17:35:58.175Z,8.73
2023-04-18T17:38:24.765Z,8.67
2023-04-18T17:41:01.144Z,8.67
2023-04-18T17:43:28.194Z,8.70
2023-04-18T17:45:55.953Z,8.63
2023-04-18T17:48:22.612Z,8.60
2023-04-18T17:50:49.146Z,8.61
2023-04-18T17:53:15.810Z,8.63
2023-04-18T17:55:42.369Z,8.61
2023-04-18T17:58:09.220Z,8.61
2023-04-18T18:00:35.924Z,8.61
2023-04-18T18:03:03.560Z,8.63
2023-04-18T18:05:30.707Z,8.57
2023-04-18T18:07:57.621Z,8.47
2023-04-18T18:10:24.924Z,8.42
2023-04-18T18:12:51.502Z,8.46
2023-04-18T18:15:18.362Z,8.43
2023-04-18T18:17:45.016Z,8.43
2023-04-18T18:20:11.829Z,8.44
2023-04-18T18:22:38.280Z,8.37
2023-04-18T18:25:05.449Z,8.36
2023-04-18T18:27:31.920Z,8.32
2023-04-18T18:29:58.530Z,8.32
2023-04-18T18:32:26.736Z,8.28
2023-04-18T18:34:53.341Z,8.25
2023-04-18T18:37:19.895Z,8.18
2023-04-18T18:39:46.346Z,8.16
2023-04-18T18:42:12.878Z,8.18
2023-04-18T18:44:39.305Z,8.20
2023-04-18T18:47:06.097Z,8.18
2023-04-18T18:49:32.798Z,8.14
2023-04-18T18:51:59.340Z,8.17
2023-04-18T18:54:25.984Z,8.18
2023-04-18T18:56:52.624Z,8.14
2023-04-18T18:59:19.166Z,8.13
2023-04-18T19:01:45.751Z,8.10
2023-04-18T19:04:12.574Z,8.13
2023-04-18T19:06:39.318Z,8.14
2023-04-18T19:09:06.078Z,8.09
2023-04-18T19:11:32.610Z,8.10
2023-04-18T19:13:59.119Z,8.11
2023-04-18T19:16:25.998Z,8.13
2023-04-18T19:18:52.455Z,8.14
2023-04-18T19:21:20.141Z,8.12
2023-04-18T19:23:47.061Z,8.11
2023-04-18T19:26:13.783Z,8.07
2023-04-18T19:28:40.291Z,8.07
2023-04-18T19:31:06.908Z,8.03
2023-04-18T19:33:33.432Z,8.05
2023-04-18T19:36:05.805Z,8.02
2023-04-18T19:38:36.742Z,8.01
2023-04-18T19:41:03.339Z,7.97
2023-04-18T19:43:29.925Z,7.96
2023-04-18T19:45:56.543Z,7.89
2023-04-18T19:48:23.127Z,7.94
2023-04-18T19:50:50.082Z,7.90
2023-04-18T19:53:18.832Z,7.93
2023-04-18T19:55:45.455Z,7.90
2023-04-18T19:58:11.942Z,7.89
2023-04-18T20:00:39.420Z,7.86
2023-04-18T20:03:06.080Z,7.88
2023-04-18T20:05:32.757Z,7.88
2023-04-18T20:07:59.209Z,7.87
2023-04-18T20:10:25.779Z,7.82
2023-04-18T20:12:52.187Z,7.81
2023-04-18T20:15:18.882Z,7.82
2023-04-18T20:17:45.503Z,7.80
2023-04-18T20:20:12.444Z,7.82
2023-04-18T20:22:40.244Z,7.79
2023-04-18T20:25:07.075Z,7.80
2023-04-18T20:27:33.624Z,7.80
2023-04-18T20:30:00.183Z,7.78
2023-04-18T20:32:26.895Z,7.75
2023-04-18T20:34:53.503Z,7.77
2023-04-18T20:37:20.449Z,7.74
2023-04-18T20:39:47.782Z,7.73
2023-04-18T20:42:14.331Z,7.74
2023-04-18T20:44:43.225Z,7.76
2023-04-18T20:47:09.753Z,7.76
2023-04-18T20:49:36.289Z,7.75
2023-04-18T20:52:02.894Z,7.73
2023-04-18T20:54:29.465Z,7.72
2023-04-18T20:56:56.052Z,7.72
2023-04-18T20:59:22.579Z,7.73
2023-04-18T21:01:49.059Z,7.70
2023-04-18T21:04:15.806Z,7.68
2023-04-18T21:06:42.733Z,7.66
2023-04-18T21:09:09.233Z,7.68
2023-04-18T21:11:35.596Z,7.69
2023-04-18T21:14:03.649Z,7.66
2023-04-18T21:16:30.140Z,7.63
2023-04-18T21:18:56.692Z,7.64
2023-04-18T21:21:23.265Z,7.63
2023-04-18T21:23:49.880Z,7.63
2023-04-18T21:26:16.382Z,7.60
2023-04-18T21:29:00.205Z,7.61
2023-04-18T21:31:29.306Z,7.56
2023-04-18T21:33:57.309Z,7.60
2023-04-18T21:36:26.876Z,7.59
2023-04-18T21:38:57.375Z,7.57
2023-04-18T21:41:24.386Z,7.59
2023-04-18T21:43:51.722Z,7.60
2023-04-18T21:46:18.859Z,7.56
2023-04-18T21:48:47.101Z,7.59
2023-04-18T21:51:15.585Z,7.56
2023-04-18T21:53:42.796Z,7.56
2023-04-18T21:56:09.737Z,7.58
2023-04-18T21:58:36.327Z,7.54
2023-04-18T22:01:03.328Z,7.55
2023-04-18T22:03:30.192Z,7.52
2023-04-18T22:05:57.579Z,7.52
2023-04-18T22:08:25.765Z,7.49
2023-04-18T22:10:58.104Z,7.53
2023-04-18T22:13:30.020Z,7.51
2023-04-18T22:15:58.187Z,7.52
2023-04-18T22:18:25.229Z,7.51
2023-04-18T22:20:53.593Z,7.50
2023-04-18T22:23:20.635Z,7.48
2023-04-18T22:25:47.470Z,7.50
2023-04-18T22:28:13.936Z,7.49
2023-04-18T22:30:40.519Z,7.47
2023-04-18T22:33:07.133Z,7.46
2023-04-18T22:35:33.644Z,7.47
2023-04-18T22:38:00.129Z,7.45
2023-04-18T22:40:26.953Z,7.45
2023-04-18T22:42:54.108Z,7.44
2023-04-18T22:45:20.796Z,7.34
2023-04-18T22:47:47.296Z,7.38
2023-04-18T22:50:14.651Z,7.41
2023-04-18T22:52:41.515Z,7.41
2023-04-18T22:55:11.464Z,7.40
2023-04-18T22:57:39.206Z,7.41
2023-04-18T23:00:06.983Z,7.43
2023-04-18T23:02:33.531Z,7.44
2023-04-18T23:05:02.295Z,7.41
2023-04-18T23:07:28.889Z,7.40
2023-04-18T23:09:55.432Z,7.38
2023-04-18T23:12:22.266Z,7.34
2023-04-18T23:14:48.774Z,7.33
2023-04-18T23:17:15.320Z,7.34
2023-04-18T23:19:41.885Z,7.33
2023-04-18T23:22:08.225Z,7.31
2023-04-18T23:24:34.730Z,7.29
2023-04-18T23:27:01.554Z,7.32
2023-04-18T23:29:28.217Z,7.30
2023-04-18T23:31:54.628Z,7.26
2023-04-18T23:34:21.108Z,7.26
2023-04-18T23:36:47.581Z,7.21
2023-04-18T23:39:13.990Z,7.17
2023-04-18T23:41:40.840Z,7.09
2023-04-18T23:44:07.243Z,7.05
2023-04-18T23:46:36.230Z,7.02
2023-04-18T23:49:03.194Z,6.98
2023-04-18T23:51:29.681Z,6.96
2023-04-18T23:53:56.214Z,6.94
2023-04-18T23:56:23.162Z,6.96
2023-04-18T23:58:50.369Z,6.94
